sensor_id;sensor_type;location;lat;lon;timestamp;temperature;humidity
75155;HTU21D;63735;44.730;37.818;2022-11-15T00:02:00;7.64;67.42
75155;HTU21D;63735;44.730;37.818;2022-11-15T00:04:44;7.63;67.50
75155;HTU21D;63735;44.730;37.818;2022-11-15T00:07:29;7.62;67.50
75155;HTU21D;63735;44.730;37.818;2022-11-15T00:10:13;7.63;67.60
75155;HTU21D;63735;44.730;37.818;2022-11-15T00:12:58;7.63;67.75
75155;HTU21D;63735;44.730;37.818;2022-11-15T00:15:42;7.63;67.98
75155;HTU21D;63735;44.730;37.818;2022-11-15T00:18:27;7.61;68.30
75155;HTU21D;63735;44.730;37.818;2022-11-15T00:21:15;7.59;68.22
75155;HTU21D;63735;44.730;37.818;2022-11-15T00:24:00;7.56;68.39
75155;HTU21D;63735;44.730;37.818;2022-11-15T00:26:44;7.55;68.41
75155;HTU21D;63735;44.730;37.818;2022-11-15T00:29:29;7.55;68.42
75155;HTU21D;63735;44.730;37.818;2022-11-15T00:32:13;7.55;68.45
75155;HTU21D;63735;44.730;37.818;2022-11-15T00:34:58;7.55;68.32
75155;HTU21D;63735;44.730;37.818;2022-11-15T00:37:42;7.53;68.25
75155;HTU21D;63735;44.730;37.818;2022-11-15T00:40:27;7.52;68.36
75155;HTU21D;63735;44.730;37.818;2022-11-15T00:43:12;7.49;68.41
75155;HTU21D;63735;44.730;37.818;2022-11-15T00:45:56;7.48;68.45
75155;HTU21D;63735;44.730;37.818;2022-11-15T00:48:41;7.48;68.45
75155;HTU21D;63735;44.730;37.818;2022-11-15T00:51:25;7.49;68.39
75155;HTU21D;63735;44.730;37.818;2022-11-15T00:54:10;7.46;68.40
75155;HTU21D;63735;44.730;37.818;2022-11-15T00:56:54;7.47;68.34
75155;HTU21D;63735;44.730;37.818;2022-11-15T00:59:39;7.47;68.42
75155;HTU21D;63735;44.730;37.818;2022-11-15T01:02:23;7.49;68.21
75155;HTU21D;63735;44.730;37.818;2022-11-15T01:05:08;7.53;67.97
75155;HTU21D;63735;44.730;37.818;2022-11-15T01:07:54;7.55;67.87
75155;HTU21D;63735;44.730;37.818;2022-11-15T01:10:38;7.55;67.83
75155;HTU21D;63735;44.730;37.818;2022-11-15T01:13:23;7.54;67.73
75155;HTU21D;63735;44.730;37.818;2022-11-15T01:16:13;7.53;67.72
75155;HTU21D;63735;44.730;37.818;2022-11-15T01:18:59;7.49;67.74
75155;HTU21D;63735;44.730;37.818;2022-11-15T01:21:43;7.48;67.61
75155;HTU21D;63735;44.730;37.818;2022-11-15T01:24:27;7.49;67.54
75155;HTU21D;63735;44.730;37.818;2022-11-15T01:27:12;7.48;67.69
75155;HTU21D;63735;44.730;37.818;2022-11-15T01:29:56;7.45;67.96
75155;HTU21D;63735;44.730;37.818;2022-11-15T01:32:41;7.44;67.97
75155;HTU21D;63735;44.730;37.818;2022-11-15T01:35:25;7.43;68.02
75155;HTU21D;63735;44.730;37.818;2022-11-15T01:38:10;7.42;67.95
75155;HTU21D;63735;44.730;37.818;2022-11-15T01:40:54;7.43;67.80
75155;HTU21D;63735;44.730;37.818;2022-11-15T01:43:39;7.46;67.62
75155;HTU21D;63735;44.730;37.818;2022-11-15T01:46:29;7.48;67.46
75155;HTU21D;63735;44.730;37.818;2022-11-15T01:49:18;7.50;67.27
75155;HTU21D;63735;44.730;37.818;2022-11-15T01:52:05;7.54;67.05
75155;HTU21D;63735;44.730;37.818;2022-11-15T01:55:05;7.55;66.74
75155;HTU21D;63735;44.730;37.818;2022-11-15T01:57:54;7.59;66.53
75155;HTU21D;63735;44.730;37.818;2022-11-15T02:00:40;7.58;66.54
75155;HTU21D;63735;44.730;37.818;2022-11-15T02:03:37;7.57;66.59
75155;HTU21D;63735;44.730;37.818;2022-11-15T02:06:24;7.58;66.54
75155;HTU21D;63735;44.730;37.818;2022-11-15T02:09:10;7.58;66.54
75155;HTU21D;63735;44.730;37.818;2022-11-15T02:11:55;7.60;66.43
75155;HTU21D;63735;44.730;37.818;2022-11-15T02:14:42;7.62;66.31
75155;HTU21D;63735;44.730;37.818;2022-11-15T02:17:34;7.62;66.32
75155;HTU21D;63735;44.730;37.818;2022-11-15T02:24:01;7.59;66.27
75155;HTU21D;63735;44.730;37.818;2022-11-15T02:32:54;7.57;66.18
75155;HTU21D;63735;44.730;37.818;2022-11-15T02:38:52;7.55;66.29
75155;HTU21D;63735;44.730;37.818;2022-11-15T02:42:28;7.53;66.22
75155;HTU21D;63735;44.730;37.818;2022-11-15T02:44:47;7.54;66.14
75155;HTU21D;63735;44.730;37.818;2022-11-15T02:47:37;7.53;65.99
75155;HTU21D;63735;44.730;37.818;2022-11-15T02:50:28;7.54;65.88
75155;HTU21D;63735;44.730;37.818;2022-11-15T02:53:15;7.57;65.64
75155;HTU21D;63735;44.730;37.818;2022-11-15T02:55:59;7.59;65.63
75155;HTU21D;63735;44.730;37.818;2022-11-15T03:01:56;7.60;65.77
75155;HTU21D;63735;44.730;37.818;2022-11-15T03:08:16;7.57;65.77
75155;HTU21D;63735;44.730;37.818;2022-11-15T03:11:14;7.55;65.85
75155;HTU21D;63735;44.730;37.818;2022-11-15T03:14:18;7.52;65.92
75155;HTU21D;63735;44.730;37.818;2022-11-15T03:17:19;7.54;65.75
75155;HTU21D;63735;44.730;37.818;2022-11-15T03:20:07;7.54;65.69
75155;HTU21D;63735;44.730;37.818;2022-11-15T03:22:55;7.52;65.64
75155;HTU21D;63735;44.730;37.818;2022-11-15T03:25:44;7.53;65.51
75155;HTU21D;63735;44.730;37.818;2022-11-15T03:28:36;7.56;65.27
75155;HTU21D;63735;44.730;37.818;2022-11-15T03:31:23;7.56;65.21
75155;HTU21D;63735;44.730;37.818;2022-11-15T03:37:48;7.59;64.88
75155;HTU21D;63735;44.730;37.818;2022-11-15T03:40:51;7.61;64.66
75155;HTU21D;63735;44.730;37.818;2022-11-15T03:43:57;7.59;64.63
75155;HTU21D;63735;44.730;37.818;2022-11-15T03:47:11;7.60;64.35
75155;HTU21D;63735;44.730;37.818;2022-11-15T03:50:15;7.63;64.19
75155;HTU21D;63735;44.730;37.818;2022-11-15T03:53:01;7.67;64.14
75155;HTU21D;63735;44.730;37.818;2022-11-15T03:55:46;7.67;63.95
75155;HTU21D;63735;44.730;37.818;2022-11-15T03:58:30;7.65;63.82
75155;HTU21D;63735;44.730;37.818;2022-11-15T04:01:15;7.62;63.69
75155;HTU21D;63735;44.730;37.818;2022-11-15T04:03:59;7.59;63.73
75155;HTU21D;63735;44.730;37.818;2022-11-15T04:06:44;7.55;63.71
75155;HTU21D;63735;44.730;37.818;2022-11-15T04:09:28;7.57;63.58
75155;HTU21D;63735;44.730;37.818;2022-11-15T04:12:13;7.58;63.41
75155;HTU21D;63735;44.730;37.818;2022-11-15T04:15:16;7.58;63.36
75155;HTU21D;63735;44.730;37.818;2022-11-15T04:18:01;7.59;63.31
75155;HTU21D;63735;44.730;37.818;2022-11-15T04:20:45;7.61;63.10
75155;HTU21D;63735;44.730;37.818;2022-11-15T04:23:48;7.62;62.85
75155;HTU21D;63735;44.730;37.818;2022-11-15T04:26:51;7.60;62.69
75155;HTU21D;63735;44.730;37.818;2022-11-15T04:29:35;7.67;62.57
75155;HTU21D;63735;44.730;37.818;2022-11-15T04:32:20;7.69;62.44
75155;HTU21D;63735;44.730;37.818;2022-11-15T04:35:04;7.67;62.47
75155;HTU21D;63735;44.730;37.818;2022-11-15T04:37:49;7.59;62.48
75155;HTU21D;63735;44.730;37.818;2022-11-15T04:40:34;7.48;62.52
75155;HTU21D;63735;44.730;37.818;2022-11-15T04:43:19;7.40;62.58
75155;HTU21D;63735;44.730;37.818;2022-11-15T04:46:04;7.29;62.69
75155;HTU21D;63735;44.730;37.818;2022-11-15T04:48:48;7.22;62.78
75155;HTU21D;63735;44.730;37.818;2022-11-15T04:51:33;7.08;62.90
75155;HTU21D;63735;44.730;37.818;2022-11-15T04:54:17;6.93;63.08
75155;HTU21D;63735;44.730;37.818;2022-11-15T04:57:01;6.86;63.24
75155;HTU21D;63735;44.730;37.818;2022-11-15T04:59:46;6.72;63.18
75155;HTU21D;63735;44.730;37.818;2022-11-15T05:02:31;6.43;63.52
75155;HTU21D;63735;44.730;37.818;2022-11-15T05:05:35;6.23;63.79
75155;HTU21D;63735;44.730;37.818;2022-11-15T05:08:19;5.99;64.14
75155;HTU21D;63735;44.730;37.818;2022-11-15T05:11:04;6.09;64.50
75155;HTU21D;63735;44.730;37.818;2022-11-15T05:13:48;7.10;62.96
75155;HTU21D;63735;44.730;37.818;2022-11-15T05:16:33;8.32;60.11
75155;HTU21D;63735;44.730;37.818;2022-11-15T05:19:17;9.06;58.45
75155;HTU21D;63735;44.730;37.818;2022-11-15T05:22:02;9.20;58.46
75155;HTU21D;63735;44.730;37.818;2022-11-15T05:24:46;9.51;58.72
75155;HTU21D;63735;44.730;37.818;2022-11-15T05:27:30;10.13;58.08
75155;HTU21D;63735;44.730;37.818;2022-11-15T05:30:15;10.59;57.49
75155;HTU21D;63735;44.730;37.818;2022-11-15T05:33:00;10.72;57.55
75155;HTU21D;63735;44.730;37.818;2022-11-15T05:35:50;10.84;57.73
75155;HTU21D;63735;44.730;37.818;2022-11-15T05:38:38;10.99;57.56
75155;HTU21D;63735;44.730;37.818;2022-11-15T05:41:45;11.07;56.66
75155;HTU21D;63735;44.730;37.818;2022-11-15T05:44:31;11.12;56.84
75155;HTU21D;63735;44.730;37.818;2022-11-15T05:47:22;11.39;56.13
75155;HTU21D;63735;44.730;37.818;2022-11-15T05:50:08;11.59;55.26
75155;HTU21D;63735;44.730;37.818;2022-11-15T05:52:55;11.86;54.68
75155;HTU21D;63735;44.730;37.818;2022-11-15T05:55:40;11.97;54.15
75155;HTU21D;63735;44.730;37.818;2022-11-15T05:58:24;12.19;53.84
75155;HTU21D;63735;44.730;37.818;2022-11-15T06:01:09;12.29;53.37
75155;HTU21D;63735;44.730;37.818;2022-11-15T06:03:54;12.48;52.99
75155;HTU21D;63735;44.730;37.818;2022-11-15T06:06:38;12.58;52.49
75155;HTU21D;63735;44.730;37.818;2022-11-15T06:09:23;12.49;51.88
75155;HTU21D;63735;44.730;37.818;2022-11-15T06:12:07;12.43;51.94
75155;HTU21D;63735;44.730;37.818;2022-11-15T06:14:52;12.50;51.85
75155;HTU21D;63735;44.730;37.818;2022-11-15T06:17:36;12.60;51.62
75155;HTU21D;63735;44.730;37.818;2022-11-15T06:20:21;12.72;51.50
75155;HTU21D;63735;44.730;37.818;2022-11-15T06:23:06;12.74;50.87
75155;HTU21D;63735;44.730;37.818;2022-11-15T06:25:50;12.71;50.81
75155;HTU21D;63735;44.730;37.818;2022-11-15T06:28:34;12.49;50.89
75155;HTU21D;63735;44.730;37.818;2022-11-15T06:31:19;12.38;51.10
75155;HTU21D;63735;44.730;37.818;2022-11-15T06:34:03;12.41;50.72
75155;HTU21D;63735;44.730;37.818;2022-11-15T06:36:48;12.45;50.51
75155;HTU21D;63735;44.730;37.818;2022-11-15T06:39:32;12.37;50.11
75155;HTU21D;63735;44.730;37.818;2022-11-15T06:42:17;12.52;49.92
75155;HTU21D;63735;44.730;37.818;2022-11-15T06:45:01;12.65;49.30
75155;HTU21D;63735;44.730;37.818;2022-11-15T06:47:47;12.82;49.07
75155;HTU21D;63735;44.730;37.818;2022-11-15T06:50:31;13.04;48.56
75155;HTU21D;63735;44.730;37.818;2022-11-15T06:53:15;13.23;48.17
75155;HTU21D;63735;44.730;37.818;2022-11-15T06:56:02;13.67;47.53
75155;HTU21D;63735;44.730;37.818;2022-11-15T06:58:47;14.07;46.58
75155;HTU21D;63735;44.730;37.818;2022-11-15T07:01:32;14.37;45.90
75155;HTU21D;63735;44.730;37.818;2022-11-15T07:04:16;14.40;45.06
75155;HTU21D;63735;44.730;37.818;2022-11-15T07:07:00;14.44;45.24
75155;HTU21D;63735;44.730;37.818;2022-11-15T07:09:45;14.51;45.11
75155;HTU21D;63735;44.730;37.818;2022-11-15T07:12:30;14.54;44.52
75155;HTU21D;63735;44.730;37.818;2022-11-15T07:15:15;14.45;44.49
75155;HTU21D;63735;44.730;37.818;2022-11-15T07:18:03;14.59;44.42
75155;HTU21D;63735;44.730;37.818;2022-11-15T07:20:47;14.93;43.31
75155;HTU21D;63735;44.730;37.818;2022-11-15T07:23:32;14.97;42.77
75155;HTU21D;63735;44.730;37.818;2022-11-15T07:26:16;15.28;42.54
75155;HTU21D;63735;44.730;37.818;2022-11-15T07:29:01;15.59;42.18
75155;HTU21D;63735;44.730;37.818;2022-11-15T07:31:45;16.10;41.43
75155;HTU21D;63735;44.730;37.818;2022-11-15T07:34:30;16.08;41.49
75155;HTU21D;63735;44.730;37.818;2022-11-15T07:37:14;16.21;41.15
75155;HTU21D;63735;44.730;37.818;2022-11-15T07:39:59;16.44;40.76
75155;HTU21D;63735;44.730;37.818;2022-11-15T07:42:43;17.05;39.91
75155;HTU21D;63735;44.730;37.818;2022-11-15T07:45:42;17.64;38.79
75155;HTU21D;63735;44.730;37.818;2022-11-15T07:48:26;17.78;38.06
75155;HTU21D;63735;44.730;37.818;2022-11-15T07:51:15;17.93;37.20
75155;HTU21D;63735;44.730;37.818;2022-11-15T07:53:59;18.15;36.58
75155;HTU21D;63735;44.730;37.818;2022-11-15T07:56:44;18.03;36.52
75155;HTU21D;63735;44.730;37.818;2022-11-15T07:59:28;18.02;36.48
75155;HTU21D;63735;44.730;37.818;2022-11-15T08:02:13;18.08;36.01
75155;HTU21D;63735;44.730;37.818;2022-11-15T08:04:57;18.22;35.73
75155;HTU21D;63735;44.730;37.818;2022-11-15T08:07:43;18.27;35.73
75155;HTU21D;63735;44.730;37.818;2022-11-15T08:10:27;18.44;35.52
75155;HTU21D;63735;44.730;37.818;2022-11-15T08:13:13;18.49;35.59
75155;HTU21D;63735;44.730;37.818;2022-11-15T08:16:02;17.99;35.79
75155;HTU21D;63735;44.730;37.818;2022-11-15T08:18:46;17.82;36.19
75155;HTU21D;63735;44.730;37.818;2022-11-15T08:21:31;18.00;36.02
75155;HTU21D;63735;44.730;37.818;2022-11-15T08:24:15;18.38;35.44
75155;HTU21D;63735;44.730;37.818;2022-11-15T08:27:00;18.62;34.83
75155;HTU21D;63735;44.730;37.818;2022-11-15T08:29:45;18.73;34.60
75155;HTU21D;63735;44.730;37.818;2022-11-15T08:32:31;18.79;34.27
75155;HTU21D;63735;44.730;37.818;2022-11-15T08:35:16;18.64;34.35
75155;HTU21D;63735;44.730;37.818;2022-11-15T08:38:00;18.71;34.42
75155;HTU21D;63735;44.730;37.818;2022-11-15T08:40:45;18.76;34.31
75155;HTU21D;63735;44.730;37.818;2022-11-15T08:43:29;18.94;34.24
75155;HTU21D;63735;44.730;37.818;2022-11-15T08:46:14;19.20;34.06
75155;HTU21D;63735;44.730;37.818;2022-11-15T08:48:58;19.24;33.59
75155;HTU21D;63735;44.730;37.818;2022-11-15T08:51:42;19.35;33.63
75155;HTU21D;63735;44.730;37.818;2022-11-15T08:54:27;19.48;33.46
75155;HTU21D;63735;44.730;37.818;2022-11-15T08:57:11;19.42;33.35
75155;HTU21D;63735;44.730;37.818;2022-11-15T08:59:56;19.45;33.43
75155;HTU21D;63735;44.730;37.818;2022-11-15T09:02:41;19.40;32.99
75155;HTU21D;63735;44.730;37.818;2022-11-15T09:05:26;19.18;33.25
75155;HTU21D;63735;44.730;37.818;2022-11-15T09:08:10;19.18;33.38
75155;HTU21D;63735;44.730;37.818;2022-11-15T09:10:57;19.23;33.47
75155;HTU21D;63735;44.730;37.818;2022-11-15T09:13:42;19.16;33.83
75155;HTU21D;63735;44.730;37.818;2022-11-15T09:16:26;19.05;33.90
75155;HTU21D;63735;44.730;37.818;2022-11-15T09:19:11;18.92;34.21
75155;HTU21D;63735;44.730;37.818;2022-11-15T09:21:55;18.94;34.41
75155;HTU21D;63735;44.730;37.818;2022-11-15T09:24:40;18.79;34.80
75155;HTU21D;63735;44.730;37.818;2022-11-15T09:27:31;18.81;35.01
75155;HTU21D;63735;44.730;37.818;2022-11-15T09:30:16;18.89;34.79
75155;HTU21D;63735;44.730;37.818;2022-11-15T09:33:10;19.03;34.63
75155;HTU21D;63735;44.730;37.818;2022-11-15T09:36:03;19.00;34.64
75155;HTU21D;63735;44.730;37.818;2022-11-15T09:38:47;18.96;34.29
75155;HTU21D;63735;44.730;37.818;2022-11-15T09:41:50;18.96;34.59
75155;HTU21D;63735;44.730;37.818;2022-11-15T09:44:46;18.76;34.09
75155;HTU21D;63735;44.730;37.818;2022-11-15T09:47:44;18.94;33.87
75155;HTU21D;63735;44.730;37.818;2022-11-15T09:50:51;19.27;33.42
75155;HTU21D;63735;44.730;37.818;2022-11-15T09:56:21;19.40;33.89
75155;HTU21D;63735;44.730;37.818;2022-11-15T10:04:30;18.76;35.01
75155;HTU21D;63735;44.730;37.818;2022-11-15T10:07:19;18.78;35.14
75155;HTU21D;63735;44.730;37.818;2022-11-15T10:09:56;18.76;35.17
75155;HTU21D;63735;44.730;37.818;2022-11-15T10:12:27;18.55;35.77
75155;HTU21D;63735;44.730;37.818;2022-11-15T10:15:09;18.53;35.91
75155;HTU21D;63735;44.730;37.818;2022-11-15T10:20:24;18.80;35.43
75155;HTU21D;63735;44.730;37.818;2022-11-15T10:22:52;18.98;34.95
75155;HTU21D;63735;44.730;37.818;2022-11-15T10:25:29;19.23;34.60
75155;HTU21D;63735;44.730;37.818;2022-11-15T10:28:11;19.31;34.56
75155;HTU21D;63735;44.730;37.818;2022-11-15T10:30:45;19.43;34.34
75155;HTU21D;63735;44.730;37.818;2022-11-15T10:33:37;19.36;34.89
75155;HTU21D;63735;44.730;37.818;2022-11-15T10:41:17;19.37;34.57
75155;HTU21D;63735;44.730;37.818;2022-11-15T10:43:43;19.31;34.72
75155;HTU21D;63735;44.730;37.818;2022-11-15T10:46:21;19.27;35.02
75155;HTU21D;63735;44.730;37.818;2022-11-15T10:48:47;19.23;35.34
75155;HTU21D;63735;44.730;37.818;2022-11-15T10:51:26;19.36;34.87
75155;HTU21D;63735;44.730;37.818;2022-11-15T10:53:59;19.53;34.75
75155;HTU21D;63735;44.730;37.818;2022-11-15T10:56:26;19.54;34.57
75155;HTU21D;63735;44.730;37.818;2022-11-15T10:58:56;19.44;34.34
75155;HTU21D;63735;44.730;37.818;2022-11-15T11:01:25;19.24;34.95
75155;HTU21D;63735;44.730;37.818;2022-11-15T11:06:27;18.97;35.04
75155;HTU21D;63735;44.730;37.818;2022-11-15T11:09:04;18.93;35.64
75155;HTU21D;63735;44.730;37.818;2022-11-15T11:11:50;19.01;35.79
75155;HTU21D;63735;44.730;37.818;2022-11-15T11:14:30;19.11;35.66
75155;HTU21D;63735;44.730;37.818;2022-11-15T11:28:23;19.01;36.23
75155;HTU21D;63735;44.730;37.818;2022-11-15T11:39:50;19.21;35.91
75155;HTU21D;63735;44.730;37.818;2022-11-15T11:42:47;19.12;36.08
75155;HTU21D;63735;44.730;37.818;2022-11-15T11:46:01;19.22;35.66
75155;HTU21D;63735;44.730;37.818;2022-11-15T11:48:43;19.17;35.91
75155;HTU21D;63735;44.730;37.818;2022-11-15T11:51:34;19.18;35.82
75155;HTU21D;63735;44.730;37.818;2022-11-15T11:54:14;19.23;35.91
75155;HTU21D;63735;44.730;37.818;2022-11-15T11:56:44;19.16;35.98
75155;HTU21D;63735;44.730;37.818;2022-11-15T12:01:43;19.27;36.08
75155;HTU21D;63735;44.730;37.818;2022-11-15T12:04:11;19.40;35.80
75155;HTU21D;63735;44.730;37.818;2022-11-15T12:06:55;19.14;36.41
75155;HTU21D;63735;44.730;37.818;2022-11-15T12:16:57;19.16;37.05
75155;HTU21D;63735;44.730;37.818;2022-11-15T12:19:24;19.05;37.21
75155;HTU21D;63735;44.730;37.818;2022-11-15T12:22:01;19.01;37.30
75155;HTU21D;63735;44.730;37.818;2022-11-15T12:24:37;19.14;37.48
75155;HTU21D;63735;44.730;37.818;2022-11-15T12:27:13;19.23;37.46
75155;HTU21D;63735;44.730;37.818;2022-11-15T12:29:49;19.36;37.31
75155;HTU21D;63735;44.730;37.818;2022-11-15T12:32:27;19.43;37.17
75155;HTU21D;63735;44.730;37.818;2022-11-15T12:34:54;19.41;37.33
75155;HTU21D;63735;44.730;37.818;2022-11-15T12:42:36;19.13;37.50
75155;HTU21D;63735;44.730;37.818;2022-11-15T12:45:37;19.02;37.54
75155;HTU21D;63735;44.730;37.818;2022-11-15T12:51:08;19.01;37.62
75155;HTU21D;63735;44.730;37.818;2022-11-15T12:53:34;18.92;37.79
75155;HTU21D;63735;44.730;37.818;2022-11-15T13:06:55;17.74;39.59
75155;HTU21D;63735;44.730;37.818;2022-11-15T13:12:00;17.23;40.50
75155;HTU21D;63735;44.730;37.818;2022-11-15T13:14:46;16.88;41.20
75155;HTU21D;63735;44.730;37.818;2022-11-15T13:19:46;16.28;42.51
75155;HTU21D;63735;44.730;37.818;2022-11-15T13:22:13;15.96;43.10
75155;HTU21D;63735;44.730;37.818;2022-11-15T13:25:01;15.66;43.70
75155;HTU21D;63735;44.730;37.818;2022-11-15T13:27:28;15.37;44.25
75155;HTU21D;63735;44.730;37.818;2022-11-15T13:29:55;15.08;44.64
75155;HTU21D;63735;44.730;37.818;2022-11-15T13:32:21;14.81;45.11
75155;HTU21D;63735;44.730;37.818;2022-11-15T13:34:49;14.55;45.50
75155;HTU21D;63735;44.730;37.818;2022-11-15T13:39:48;13.78;46.58
75155;HTU21D;63735;44.730;37.818;2022-11-15T13:42:19;13.34;47.06
75155;HTU21D;63735;44.730;37.818;2022-11-15T13:44:56;12.95;47.90
75155;HTU21D;63735;44.730;37.818;2022-11-15T13:47:26;12.59;48.27
75155;HTU21D;63735;44.730;37.818;2022-11-15T13:49:53;12.26;48.96
75155;HTU21D;63735;44.730;37.818;2022-11-15T13:52:19;11.94;49.87
75155;HTU21D;63735;44.730;37.818;2022-11-15T13:55:02;11.66;50.84
75155;HTU21D;63735;44.730;37.818;2022-11-15T13:57:44;11.41;50.85
75155;HTU21D;63735;44.730;37.818;2022-11-15T14:02:56;11.10;51.46
75155;HTU21D;63735;44.730;37.818;2022-11-15T14:05:24;11.04;51.71
75155;HTU21D;63735;44.730;37.818;2022-11-15T14:08:00;11.01;51.85
75155;HTU21D;63735;44.730;37.818;2022-11-15T14:10:37;10.98;52.35
75155;HTU21D;63735;44.730;37.818;2022-11-15T14:13:04;10.95;52.21
75155;HTU21D;63735;44.730;37.818;2022-11-15T14:15:38;10.89;52.41
75155;HTU21D;63735;44.730;37.818;2022-11-15T14:18:05;10.87;52.49
75155;HTU21D;63735;44.730;37.818;2022-11-15T14:20:36;10.84;52.62
75155;HTU21D;63735;44.730;37.818;2022-11-15T14:23:24;10.83;52.66
75155;HTU21D;63735;44.730;37.818;2022-11-15T14:25:58;10.75;52.74
75155;HTU21D;63735;44.730;37.818;2022-11-15T14:30:55;10.65;53.41
75155;HTU21D;63735;44.730;37.818;2022-11-15T14:33:34;10.65;53.67
75155;HTU21D;63735;44.730;37.818;2022-11-15T14:38:31;10.63;53.58
75155;HTU21D;63735;44.730;37.818;2022-11-15T14:40:57;10.62;53.72
75155;HTU21D;63735;44.730;37.818;2022-11-15T14:43:23;10.59;53.92
75155;HTU21D;63735;44.730;37.818;2022-11-15T14:45:50;10.56;53.99
75155;HTU21D;63735;44.730;37.818;2022-11-15T14:48:16;10.55;53.94
75155;HTU21D;63735;44.730;37.818;2022-11-15T14:50:42;10.55;53.90
75155;HTU21D;63735;44.730;37.818;2022-11-15T14:53:15;10.55;53.97
75155;HTU21D;63735;44.730;37.818;2022-11-15T14:55:42;10.59;53.86
75155;HTU21D;63735;44.730;37.818;2022-11-15T14:58:08;10.59;53.83
75155;HTU21D;63735;44.730;37.818;2022-11-15T15:00:36;10.58;53.79
75155;HTU21D;63735;44.730;37.818;2022-11-15T15:03:03;10.54;53.91
75155;HTU21D;63735;44.730;37.818;2022-11-15T15:05:41;10.49;54.17
75155;HTU21D;63735;44.730;37.818;2022-11-15T15:08:08;10.41;54.18
75155;HTU21D;63735;44.730;37.818;2022-11-15T15:10:41;10.31;54.46
75155;HTU21D;63735;44.730;37.818;2022-11-15T15:13:25;10.19;54.70
75155;HTU21D;63735;44.730;37.818;2022-11-15T15:15:52;10.10;54.53
75155;HTU21D;63735;44.730;37.818;2022-11-15T15:18:18;10.01;54.65
75155;HTU21D;63735;44.730;37.818;2022-11-15T15:20:49;9.98;54.71
75155;HTU21D;63735;44.730;37.818;2022-11-15T15:23:20;9.98;54.70
75155;HTU21D;63735;44.730;37.818;2022-11-15T15:25:47;9.93;54.71
75155;HTU21D;63735;44.730;37.818;2022-11-15T15:28:14;9.88;54.76
75155;HTU21D;63735;44.730;37.818;2022-11-15T15:30:41;9.84;54.77
75155;HTU21D;63735;44.730;37.818;2022-11-15T15:33:07;9.81;54.81
75155;HTU21D;63735;44.730;37.818;2022-11-15T15:35:34;9.76;54.91
75155;HTU21D;63735;44.730;37.818;2022-11-15T15:38:01;9.69;54.97
75155;HTU21D;63735;44.730;37.818;2022-11-15T15:40:29;9.66;55.08
75155;HTU21D;63735;44.730;37.818;2022-11-15T15:42:55;9.57;55.13
75155;HTU21D;63735;44.730;37.818;2022-11-15T15:45:21;9.52;55.23
75155;HTU21D;63735;44.730;37.818;2022-11-15T15:47:47;9.49;55.37
75155;HTU21D;63735;44.730;37.818;2022-11-15T15:52:51;9.37;55.58
75155;HTU21D;63735;44.730;37.818;2022-11-15T15:55:18;9.27;55.78
75155;HTU21D;63735;44.730;37.818;2022-11-15T15:57:44;9.22;55.85
75155;HTU21D;63735;44.730;37.818;2022-11-15T16:00:10;9.14;56.07
75155;HTU21D;63735;44.730;37.818;2022-11-15T16:02:40;9.04;56.22
75155;HTU21D;63735;44.730;37.818;2022-11-15T16:05:07;8.95;56.35
75155;HTU21D;63735;44.730;37.818;2022-11-15T16:07:33;8.87;56.53
75155;HTU21D;63735;44.730;37.818;2022-11-15T16:09:59;8.75;56.77
75155;HTU21D;63735;44.730;37.818;2022-11-15T16:12:26;8.65;56.94
75155;HTU21D;63735;44.730;37.818;2022-11-15T16:14:52;8.59;57.10
75155;HTU21D;63735;44.730;37.818;2022-11-15T16:17:23;8.52;57.25
75155;HTU21D;63735;44.730;37.818;2022-11-15T16:19:49;8.48;57.29
75155;HTU21D;63735;44.730;37.818;2022-11-15T16:22:15;8.43;57.42
75155;HTU21D;63735;44.730;37.818;2022-11-15T16:24:41;8.35;57.58
75155;HTU21D;63735;44.730;37.818;2022-11-15T16:27:18;8.28;57.90
75155;HTU21D;63735;44.730;37.818;2022-11-15T16:29:45;8.20;57.84
75155;HTU21D;63735;44.730;37.818;2022-11-15T16:32:12;8.14;57.93
75155;HTU21D;63735;44.730;37.818;2022-11-15T16:34:38;8.08;58.05
75155;HTU21D;63735;44.730;37.818;2022-11-15T16:37:04;8.03;58.05
75155;HTU21D;63735;44.730;37.818;2022-11-15T16:39:30;8.00;58.06
75155;HTU21D;63735;44.730;37.818;2022-11-15T16:41:59;7.89;58.27
75155;HTU21D;63735;44.730;37.818;2022-11-15T16:44:25;7.79;58.39
75155;HTU21D;63735;44.730;37.818;2022-11-15T16:46:52;7.73;58.54
75155;HTU21D;63735;44.730;37.818;2022-11-15T16:49:19;7.64;58.77
75155;HTU21D;63735;44.730;37.818;2022-11-15T16:51:47;7.56;58.80
75155;HTU21D;63735;44.730;37.818;2022-11-15T16:54:13;7.52;58.85
75155;HTU21D;63735;44.730;37.818;2022-11-15T16:56:40;7.43;59.06
75155;HTU21D;63735;44.730;37.818;2022-11-15T16:59:06;7.38;59.16
75155;HTU21D;63735;44.730;37.818;2022-11-15T17:01:36;7.31;59.32
75155;HTU21D;63735;44.730;37.818;2022-11-15T17:04:12;7.24;59.42
75155;HTU21D;63735;44.730;37.818;2022-11-15T17:06:42;7.13;59.66
75155;HTU21D;63735;44.730;37.818;2022-11-15T17:09:19;7.08;59.86
75155;HTU21D;63735;44.730;37.818;2022-11-15T17:11:46;7.05;59.74
75155;HTU21D;63735;44.730;37.818;2022-11-15T17:14:12;7.00;59.72
75155;HTU21D;63735;44.730;37.818;2022-11-15T17:16:38;6.91;59.86
75155;HTU21D;63735;44.730;37.818;2022-11-15T17:19:14;6.80;60.25
75155;HTU21D;63735;44.730;37.818;2022-11-15T17:21:41;6.73;60.33
75155;HTU21D;63735;44.730;37.818;2022-11-15T17:24:07;6.65;60.51
75155;HTU21D;63735;44.730;37.818;2022-11-15T17:26:34;6.57;60.68
75155;HTU21D;63735;44.730;37.818;2022-11-15T17:29:00;6.52;60.67
75155;HTU21D;63735;44.730;37.818;2022-11-15T17:31:27;6.50;60.68
75155;HTU21D;63735;44.730;37.818;2022-11-15T17:33:55;6.41;60.83
75155;HTU21D;63735;44.730;37.818;2022-11-15T17:36:21;6.35;60.97
75155;HTU21D;63735;44.730;37.818;2022-11-15T17:38:47;6.31;61.04
75155;HTU21D;63735;44.730;37.818;2022-11-15T17:41:18;6.25;61.21
75155;HTU21D;63735;44.730;37.818;2022-11-15T17:43:46;6.21;61.37
75155;HTU21D;63735;44.730;37.818;2022-11-15T17:46:15;6.14;61.47
75155;HTU21D;63735;44.730;37.818;2022-11-15T17:48:42;6.10;61.59
75155;HTU21D;63735;44.730;37.818;2022-11-15T17:51:13;6.07;61.71
75155;HTU21D;63735;44.730;37.818;2022-11-15T17:53:41;5.95;61.89
75155;HTU21D;63735;44.730;37.818;2022-11-15T17:56:11;5.90;62.02
75155;HTU21D;63735;44.730;37.818;2022-11-15T17:58:37;5.83;62.08
75155;HTU21D;63735;44.730;37.818;2022-11-15T18:01:22;5.83;62.53
75155;HTU21D;63735;44.730;37.818;2022-11-15T18:03:48;5.84;62.26
75155;HTU21D;63735;44.730;37.818;2022-11-15T18:06:15;5.86;62.29
75155;HTU21D;63735;44.730;37.818;2022-11-15T18:08:43;5.87;62.38
75155;HTU21D;63735;44.730;37.818;2022-11-15T18:11:10;5.89;62.46
75155;HTU21D;63735;44.730;37.818;2022-11-15T18:13:38;5.92;62.42
75155;HTU21D;63735;44.730;37.818;2022-11-15T18:16:06;5.95;62.32